createdAt,value
2024-05-09T00:00:42.108Z,-2.10
2024-05-09T00:03:10.962Z,-1.72
2024-05-09T00:05:43.501Z,-1.84
2024-05-09T00:08:12.108Z,-2.00
2024-05-09T00:10:40.746Z,-2.29
2024-05-09T00:13:10.631Z,-2.08
2024-05-09T00:15:38.762Z,-1.88
2024-05-09T00:18:07.411Z,-2.15
2024-05-09T00:20:39.151Z,-1.93
2024-05-09T00:23:13.701Z,-2.10
2024-05-09T00:25:45.019Z,-2.11
2024-05-09T00:28:13.961Z,-2.28
2024-05-09T00:30:41.400Z,-2.10
2024-05-09T00:33:10.329Z,-2.29
2024-05-09T00:35:39.278Z,-2.04
2024-05-09T00:38:06.779Z,-2.39
2024-05-09T00:40:40.686Z,-2.54
2024-05-09T00:43:11.243Z,-2.37
2024-05-09T00:45:39.129Z,-2.34
2024-05-09T00:48:09.435Z,-2.47
2024-05-09T00:50:41.179Z,-2.49
2024-05-09T00:53:14.177Z,-2.24
2024-05-09T00:55:41.916Z,-2.29
2024-05-09T00:58:11.987Z,-2.68
2024-05-09T01:00:41.451Z,-2.76
2024-05-09T01:03:12.001Z,-2.48
2024-05-09T01:05:44.007Z,-2.50
2024-05-09T01:08:12.147Z,-2.65
2024-05-09T01:10:42.830Z,-2.59
2024-05-09T01:13:12.247Z,-2.55
2024-05-09T01:15:39.501Z,-2.49
2024-05-09T01:18:11.650Z,-2.52
2024-05-09T01:20:43.159Z,-2.81
2024-05-09T01:23:14.764Z,-2.84
2024-05-09T01:25:47.034Z,-2.78
2024-05-09T01:28:15.163Z,-2.93
2024-05-09T01:30:42.472Z,-2.86
2024-05-09T01:33:11.523Z,-3.06
2024-05-09T01:35:41.724Z,-3.18
2024-05-09T01:38:12.836Z,-3.05
2024-05-09T01:40:40.593Z,-2.53
2024-05-09T01:43:09.207Z,-2.49
2024-05-09T01:45:38.250Z,-3.18
2024-05-09T01:48:05.995Z,-3.09
2024-05-09T01:50:38.476Z,-3.15
2024-05-09T01:53:14.568Z,-3.08
2024-05-09T01:55:43.242Z,-3.33
2024-05-09T01:58:10.746Z,-3.36
2024-05-09T02:00:42.146Z,-3.42
2024-05-09T02:03:15.040Z,-3.65
2024-05-09T02:05:46.349Z,-3.23
2024-05-09T02:08:15.883Z,-3.28
2024-05-09T02:10:44.462Z,-3.83
2024-05-09T02:13:13.025Z,-3.65
2024-05-09T02:15:40.457Z,-3.59
2024-05-09T02:18:08.570Z,-3.38
2024-05-09T02:20:39.043Z,-3.52
2024-05-09T02:23:07.092Z,-3.72
2024-05-09T02:25:34.807Z,-3.70
2024-05-09T02:28:02.229Z,-3.31
2024-05-09T02:30:38.556Z,-3.34
2024-05-09T02:33:11.700Z,-3.68
2024-05-09T02:35:43.693Z,-3.53
2024-05-09T02:38:11.967Z,-3.86
2024-05-09T02:40:40.202Z,-3.55
2024-05-09T02:43:10.230Z,-3.95
2024-05-09T02:45:39.365Z,-3.80
2024-05-09T02:48:07.574Z,-3.83
2024-05-09T02:50:39.089Z,-3.60
2024-05-09T02:53:08.637Z,-3.85
2024-05-09T02:55:39.583Z,-3.69
2024-05-09T02:58:07.755Z,-3.76
2024-05-09T03:00:39.712Z,-3.87
2024-05-09T03:03:12.762Z,-3.61
2024-05-09T03:05:43.287Z,-3.84
2024-05-09T03:08:10.933Z,-4.04
2024-05-09T03:10:39.303Z,-4.04
2024-05-09T03:13:12.912Z,-3.75
2024-05-09T03:15:41.934Z,-3.95
2024-05-09T03:18:09.679Z,-3.79
2024-05-09T03:20:38.071Z,-3.86
2024-05-09T03:23:09.472Z,-4.16
2024-05-09T03:25:38.564Z,-3.85
2024-05-09T03:28:06.375Z,-4.23
2024-05-09T03:30:40.867Z,-3.96
2024-05-09T03:33:20.774Z,-4.29
2024-05-09T03:35:49.220Z,-4.27
2024-05-09T03:38:17.125Z,-4.56
2024-05-09T03:40:49.606Z,-4.44
2024-05-09T03:43:18.677Z,-4.27
2024-05-09T03:45:48.656Z,-4.27
2024-05-09T03:48:16.347Z,-4.37
2024-05-09T03:50:43.805Z,-4.24
2024-05-09T03:53:14.286Z,-4.65
2024-05-09T03:55:42.717Z,-4.74
2024-05-09T03:58:09.979Z,-4.73
2024-05-09T04:00:39.455Z,-4.48
2024-05-09T04:03:11.003Z,-4.66
2024-05-09T04:05:42.402Z,-4.65
2024-05-09T04:08:11.093Z,-4.50
2024-05-09T04:10:38.783Z,-4.49
2024-05-09T04:13:06.153Z,-4.59
2024-05-09T04:15:34.056Z,-4.33
2024-05-09T04:18:02.175Z,-4.50
2024-05-09T04:20:37.622Z,-4.46
2024-05-09T04:23:10.658Z,-4.41
2024-05-09T04:25:38.153Z,-4.24
2024-05-09T04:28:05.819Z,-4.07
2024-05-09T04:30:38.402Z,-4.37
2024-05-09T04:33:11.898Z,-3.79
2024-05-09T04:35:45.007Z,-3.79
2024-05-09T04:38:13.838Z,-4.00
2024-05-09T04:40:41.825Z,-4.17
2024-05-09T04:43:15.798Z,-4.14
2024-05-09T04:45:43.383Z,-3.90
2024-05-09T04:48:11.118Z,-3.72
2024-05-09T04:50:40.812Z,-3.73
2024-05-09T04:53:10.166Z,-3.77
2024-05-09T04:55:39.886Z,-3.53
2024-05-09T04:58:14.584Z,-3.38
2024-05-09T05:00:43.405Z,-3.60
2024-05-09T05:03:13.986Z,-3.45
2024-05-09T05:05:45.066Z,-3.25
2024-05-09T05:08:18.780Z,-3.48
2024-05-09T05:10:48.442Z,-3.12
2024-05-09T05:13:20.058Z,-3.38
2024-05-09T05:15:50.488Z,-2.97
2024-05-09T05:18:18.478Z,-2.74
2024-05-09T05:20:46.278Z,-2.81
2024-05-09T05:23:15.849Z,-2.60
2024-05-09T05:25:43.569Z,-2.81
2024-05-09T05:28:11.360Z,-2.49
2024-05-09T05:30:39.210Z,-2.36
2024-05-09T05:33:10.197Z,-2.67
2024-05-09T05:35:37.845Z,-2.25
2024-05-09T05:38:07.115Z,-2.15
2024-05-09T05:40:37.266Z,-1.79
2024-05-09T05:43:08.466Z,-1.80
2024-05-09T05:45:36.225Z,-1.88
2024-05-09T05:48:05.708Z,-1.65
2024-05-09T05:50:36.788Z,-1.39
2024-05-09T05:53:08.060Z,-1.33
2024-05-09T05:55:36.904Z,-1.29
2024-05-09T05:58:04.456Z,-1.02
2024-05-09T06:00:38.353Z,-1.43
2024-05-09T06:03:12.640Z,-0.74
2024-05-09T06:05:43.324Z,-0.82
2024-05-09T06:08:11.042Z,-0.86
2024-05-09T06:10:40.694Z,-0.81
2024-05-09T06:13:12.679Z,-1.25
2024-05-09T06:15:41.777Z,-0.21
2024-05-09T06:18:10.745Z,-0.47
2024-05-09T06:20:42.579Z,-0.16
2024-05-09T06:23:11.204Z,-0.10
2024-05-09T06:25:38.622Z,0.17
2024-05-09T06:28:06.434Z,0.50
2024-05-09T06:30:40.062Z,0.51
2024-05-09T06:33:11.738Z,0.44
2024-05-09T06:35:41.113Z,0.38
2024-05-09T06:38:09.389Z,0.42
2024-05-09T06:40:41.480Z,1.09
2024-05-09T06:43:15.052Z,0.90
2024-05-09T06:45:43.841Z,1.37
2024-05-09T06:48:11.413Z,1.73
2024-05-09T06:50:40.289Z,0.92
2024-05-09T06:53:08.506Z,1.78
2024-05-09T06:55:36.960Z,1.38
2024-05-09T06:58:06.182Z,1.69
2024-05-09T07:00:39.091Z,1.46
2024-05-09T07:03:14.874Z,1.71
2024-05-09T07:05:45.064Z,2.03
2024-05-09T07:08:13.606Z,1.80
2024-05-09T07:10:41.260Z,2.26
2024-05-09T07:13:13.582Z,1.81
2024-05-09T07:15:41.597Z,2.23
2024-05-09T07:18:15.903Z,2.37
2024-05-09T07:20:45.528Z,2.39
2024-05-09T07:23:13.197Z,2.78
2024-05-09T07:25:41.365Z,2.91
2024-05-09T07:28:19.845Z,3.02
2024-05-09T07:30:47.271Z,2.72
2024-05-09T07:33:19.362Z,2.99
2024-05-09T07:35:47.513Z,3.36
2024-05-09T07:38:14.853Z,3.40
2024-05-09T07:40:43.089Z,3.25
2024-05-09T07:43:14.201Z,3.63
2024-05-09T07:45:50.750Z,3.78
2024-05-09T07:52:37.896Z,4.10
2024-05-09T07:53:45.801Z,3.66
2024-05-09T07:56:18.323Z,4.12
2024-05-09T07:58:46.483Z,4.19
2024-05-09T08:01:13.876Z,4.49
2024-05-09T08:03:41.297Z,4.68
2024-05-09T08:06:08.655Z,4.58
2024-05-09T08:08:35.830Z,4.69
2024-05-09T08:11:03.262Z,4.94
2024-05-09T08:13:30.492Z,4.98
2024-05-09T08:15:57.852Z,5.20
2024-05-09T08:18:25.268Z,5.53
2024-05-09T08:20:52.591Z,5.67
2024-05-09T08:23:19.818Z,5.62
2024-05-09T08:25:48.028Z,5.78
2024-05-09T08:28:15.675Z,6.01
2024-05-09T08:30:43.304Z,6.28
2024-05-09T08:33:10.788Z,6.18
2024-05-09T08:35:38.086Z,6.33
2024-05-09T08:38:06.527Z,6.36
2024-05-09T08:40:36.781Z,6.62
2024-05-09T08:43:11.023Z,6.71
2024-05-09T08:45:43.640Z,6.71
2024-05-09T08:48:13.664Z,6.71
2024-05-09T08:50:41.899Z,6.65
2024-05-09T08:53:09.539Z,7.11
2024-05-09T08:55:40.770Z,6.77
2024-05-09T08:58:15.690Z,6.96
2024-05-09T09:00:44.329Z,7.04
2024-05-09T09:03:16.002Z,7.06
2024-05-09T09:05:56.152Z,7.28
2024-05-09T09:08:23.332Z,7.34
2024-05-09T09:10:54.077Z,7.10
2024-05-09T09:13:21.721Z,7.50
2024-05-09T09:15:50.278Z,7.82
2024-05-09T09:18:18.854Z,7.70
2024-05-09T09:20:47.149Z,7.84
2024-05-09T09:23:14.644Z,7.98
2024-05-09T09:25:42.441Z,7.99
2024-05-09T09:28:10.062Z,8.29
2024-05-09T09:30:41.090Z,8.40
2024-05-09T09:33:10.156Z,8.63
2024-05-09T09:35:40.222Z,8.56
2024-05-09T09:38:10.074Z,8.73
2024-05-09T09:40:45.103Z,8.97
2024-05-09T09:43:26.445Z,9.27
2024-05-09T09:45:59.809Z,9.50
2024-05-09T09:48:30.720Z,9.29
2024-05-09T09:50:58.295Z,9.27
2024-05-09T09:53:26.715Z,8.62
2024-05-09T09:55:55.876Z,8.54
2024-05-09T09:58:23.900Z,8.66
2024-05-09T10:00:51.437Z,9.14
2024-05-09T10:03:19.042Z,8.88
2024-05-09T10:05:47.513Z,9.30
2024-05-09T10:08:17.742Z,10.02
2024-05-09T10:10:48.767Z,10.53
2024-05-09T10:13:16.418Z,10.36
2024-05-09T10:15:48.480Z,10.67
2024-05-09T10:18:16.422Z,10.47
2024-05-09T10:20:45.183Z,10.80
2024-05-09T10:23:28.650Z,10.54
2024-05-09T10:25:59.853Z,10.45
2024-05-09T10:28:28.601Z,10.25
2024-05-09T10:31:10.372Z,10.35
2024-05-09T10:33:49.414Z,10.04
2024-05-09T10:36:22.315Z,9.15
2024-05-09T10:38:51.509Z,9.12
2024-05-09T10:41:20.040Z,9.00
2024-05-09T10:43:48.577Z,8.87
2024-05-09T10:46:16.702Z,8.70
2024-05-09T10:48:44.842Z,8.62
2024-05-09T10:51:13.307Z,8.59
2024-05-09T10:53:42.462Z,8.50
2024-05-09T10:56:10.364Z,8.30
2024-05-09T10:58:37.661Z,8.58
2024-05-09T11:01:07.147Z,9.57
2024-05-09T11:03:35.646Z,10.27
2024-05-09T11:06:03.850Z,10.09
2024-05-09T11:08:32.631Z,10.82
2024-05-09T11:11:02.921Z,10.63
2024-05-09T11:13:32.048Z,10.97
2024-05-09T11:16:00.439Z,10.91
2024-05-09T11:18:35.531Z,10.62
2024-05-09T11:21:12.560Z,11.19
2024-05-09T11:23:40.410Z,11.20
2024-05-09T11:26:07.691Z,11.17
2024-05-09T11:28:36.238Z,11.20
2024-05-09T11:31:08.558Z,11.26
2024-05-09T11:33:38.623Z,11.49
2024-05-09T11:36:07.221Z,10.94
2024-05-09T11:38:34.525Z,10.94
2024-05-09T11:41:03.326Z,10.58
2024-05-09T11:43:30.805Z,10.14
2024-05-09T11:45:58.456Z,9.78
2024-05-09T11:48:26.350Z,10.04
2024-05-09T11:50:56.872Z,9.85
2024-05-09T11:53:24.214Z,9.89
2024-05-09T11:55:51.899Z,9.94
2024-05-09T11:58:21.986Z,9.81
2024-05-09T12:00:49.447Z,9.74
2024-05-09T12:03:17.423Z,9.85
2024-05-09T12:05:44.970Z,9.37
2024-05-09T12:08:12.458Z,9.67
2024-05-09T12:10:39.902Z,10.10
2024-05-09T12:13:07.761Z,10.67
2024-05-09T12:15:37.830Z,10.89
2024-05-09T12:18:07.585Z,10.98
2024-05-09T12:20:38.676Z,11.14
2024-05-09T12:23:09.177Z,10.97
2024-05-09T12:25:39.825Z,11.10
2024-05-09T12:28:08.330Z,11.13
2024-05-09T12:30:40.042Z,11.19
2024-05-09T12:33:11.347Z,11.80
2024-05-09T12:35:40.321Z,12.34
2024-05-09T12:38:07.805Z,12.65
2024-05-09T12:40:37.946Z,12.89
2024-05-09T12:43:08.463Z,12.71
2024-05-09T12:45:37.623Z,12.54
2024-05-09T12:48:08.287Z,12.44
2024-05-09T12:50:37.013Z,12.87
2024-05-09T12:53:05.400Z,12.42
2024-05-09T12:55:41.122Z,12.32
2024-05-09T12:58:19.153Z,12.51
2024-05-09T13:00:47.770Z,11.93
2024-05-09T13:03:15.431Z,12.32
2024-05-09T13:05:45.082Z,11.97
2024-05-09T13:08:13.593Z,12.05
2024-05-09T13:10:41.325Z,11.82
2024-05-09T13:13:10.001Z,11.73
2024-05-09T13:15:37.676Z,11.77
2024-05-09T13:18:05.857Z,11.52
2024-05-09T13:20:35.483Z,11.44
2024-05-09T13:23:05.744Z,11.50
2024-05-09T13:25:36.977Z,11.50
2024-05-09T13:28:05.404Z,11.72
2024-05-09T13:30:39.366Z,11.31
2024-05-09T13:33:11.543Z,12.50
2024-05-09T13:35:45.003Z,12.89
2024-05-09T13:38:16.049Z,12.65
2024-05-09T13:40:43.440Z,13.03
2024-05-09T13:43:10.682Z,12.97
2024-05-09T13:45:37.979Z,12.89
2024-05-09T13:48:06.874Z,12.82
2024-05-09T13:50:36.476Z,12.42
2024-05-09T13:53:06.818Z,12.18
2024-05-09T13:55:38.118Z,12.12
2024-05-09T13:58:06.418Z,12.04
2024-05-09T14:00:44.101Z,11.74
2024-05-09T14:03:18.421Z,11.52
2024-05-09T14:05:47.837Z,11.72
2024-05-09T14:08:17.782Z,11.65
2024-05-09T14:10:49.211Z,11.23
2024-05-09T14:13:16.867Z,11.49
2024-05-09T14:15:45.598Z,11.91
2024-05-09T14:18:14.379Z,11.92
2024-05-09T14:20:42.913Z,12.27
2024-05-09T14:23:10.822Z,12.27
2024-05-09T14:25:42.184Z,12.49
2024-05-09T14:28:11.220Z,12.72
2024-05-09T14:30:39.445Z,12.86
2024-05-09T14:33:08.689Z,12.70
2024-05-09T14:35:40.027Z,12.72
2024-05-09T14:38:08.938Z,12.17
2024-05-09T14:40:41.854Z,11.92
2024-05-09T14:43:15.316Z,11.74
2024-05-09T14:45:43.987Z,11.48
2024-05-09T14:48:14.121Z,11.54
2024-05-09T14:50:41.754Z,11.38
2024-05-09T14:53:13.645Z,11.56
2024-05-09T14:55:43.051Z,12.01
2024-05-09T14:58:12.209Z,12.92
2024-05-09T15:00:46.005Z,12.84
2024-05-09T15:03:21.140Z,13.90
2024-05-09T15:05:50.183Z,14.83
2024-05-09T15:08:18.656Z,15.05
2024-05-09T15:10:46.761Z,15.02
2024-05-09T15:13:16.521Z,14.96
2024-05-09T15:15:44.830Z,15.84
2024-05-09T15:18:13.628Z,15.60
2024-05-09T15:20:41.446Z,16.02
2024-05-09T15:23:08.783Z,15.88
2024-05-09T15:25:36.940Z,16.50
2024-05-09T15:28:07.656Z,16.32
2024-05-09T15:30:36.000Z,16.05
2024-05-09T15:33:04.291Z,15.08
2024-05-09T15:35:33.243Z,13.84
2024-05-09T15:38:02.809Z,13.47
2024-05-09T15:40:37.660Z,13.24
2024-05-09T15:43:09.943Z,12.94
2024-05-09T15:45:39.660Z,12.76
2024-05-09T15:48:08.504Z,12.50
2024-05-09T15:50:39.968Z,12.28
2024-05-09T15:53:11.390Z,12.37
2024-05-09T15:55:39.403Z,12.28
2024-05-09T15:58:07.471Z,12.05
2024-05-09T16:00:39.395Z,11.84
2024-05-09T16:03:11.321Z,11.75
2024-05-09T16:05:40.737Z,11.37
2024-05-09T16:08:08.799Z,11.62
2024-05-09T16:10:39.907Z,11.67
2024-05-09T16:13:08.633Z,11.66
2024-05-09T16:15:35.922Z,11.54
2024-05-09T16:18:03.398Z,11.56
2024-05-09T16:20:38.808Z,14.58
2024-05-09T16:23:09.310Z,17.29
2024-05-09T16:25:37.313Z,17.26
2024-05-09T16:28:08.628Z,17.98
2024-05-09T16:30:40.507Z,18.15
2024-05-09T16:33:08.843Z,19.09
2024-05-09T16:35:37.602Z,19.70
2024-05-09T16:38:08.281Z,19.68
2024-05-09T16:40:40.078Z,19.81
2024-05-09T16:43:10.088Z,19.17
2024-05-09T16:45:39.578Z,18.45
2024-05-09T16:48:11.724Z,18.53
2024-05-09T16:50:39.145Z,18.99
2024-05-09T16:53:07.082Z,19.72
2024-05-09T16:55:36.069Z,19.84
2024-05-09T16:58:04.576Z,18.48
2024-05-09T17:00:40.275Z,17.01
2024-05-09T17:03:15.048Z,15.55
2024-05-09T17:05:45.695Z,14.66
2024-05-09T17:08:15.464Z,13.11
2024-05-09T17:10:42.764Z,12.71
2024-05-09T17:13:10.289Z,11.77
2024-05-09T17:15:37.942Z,11.29
2024-05-09T17:18:07.063Z,10.91
2024-05-09T17:20:36.911Z,10.63
2024-05-09T17:23:12.844Z,9.67
2024-05-09T17:25:40.903Z,10.25
2024-05-09T17:28:09.444Z,10.00
2024-05-09T17:30:39.047Z,9.58
2024-05-09T17:33:09.715Z,9.76
2024-05-09T17:35:38.352Z,9.45
2024-05-09T17:38:06.515Z,9.50
2024-05-09T17:40:36.659Z,9.50
2024-05-09T17:43:10.693Z,9.12
2024-05-09T17:45:40.676Z,9.09
2024-05-09T17:48:12.331Z,9.17
2024-05-09T17:50:40.513Z,8.97
2024-05-09T17:53:09.244Z,8.94
2024-05-09T17:55:37.038Z,8.73
2024-05-09T17:58:05.368Z,8.78
2024-05-09T18:00:39.000Z,8.70
2024-05-09T18:03:13.574Z,8.70
2024-05-09T18:05:43.169Z,8.47
2024-05-09T18:08:11.576Z,8.10
2024-05-09T18:10:40.856Z,8.31
2024-05-09T18:13:09.510Z,8.63
2024-05-09T18:15:37.434Z,8.39
2024-05-09T18:18:05.945Z,8.24
2024-05-09T18:20:42.212Z,7.80
2024-05-09T18:23:15.711Z,7.90
2024-05-09T18:25:45.026Z,7.75
2024-05-09T18:28:12.526Z,7.79
2024-05-09T18:30:40.565Z,7.57
2024-05-09T18:33:09.750Z,7.53
2024-05-09T18:35:37.153Z,7.59
2024-05-09T18:38:05.805Z,7.73
2024-05-09T18:40:36.413Z,7.67
2024-05-09T18:43:07.824Z,7.37
2024-05-09T18:45:39.304Z,7.33
2024-05-09T18:48:08.515Z,7.15
2024-05-09T18:50:39.503Z,6.91
2024-05-09T18:53:10.371Z,6.99
2024-05-09T18:55:38.362Z,6.72
2024-05-09T18:58:06.939Z,6.81
2024-05-09T19:00:37.609Z,6.17
2024-05-09T19:03:12.769Z,6.06
2024-05-09T19:05:43.511Z,6.52
2024-05-09T19:08:12.098Z,6.43
2024-05-09T19:10:39.892Z,6.31
2024-05-09T19:13:11.827Z,5.92
2024-05-09T19:15:42.443Z,6.22
2024-05-09T19:18:12.510Z,5.87
2024-05-09T19:20:40.266Z,5.85
2024-05-09T19:23:07.906Z,5.93
2024-05-09T19:25:36.026Z,5.56
2024-05-09T19:28:04.620Z,5.34
2024-05-09T19:30:39.268Z,5.24
2024-05-09T19:33:12.710Z,5.58
2024-05-09T19:35:41.961Z,5.39
2024-05-09T19:38:09.262Z,5.02
2024-05-09T19:40:36.829Z,4.69
2024-05-09T19:43:05.930Z,5.08
2024-05-09T19:45:35.447Z,5.11
2024-05-09T19:48:04.992Z,5.02
2024-05-09T19:50:40.906Z,4.96
2024-05-09T19:53:12.397Z,4.64
2024-05-09T19:55:40.908Z,4.74
2024-05-09T19:58:10.470Z,4.55
2024-05-09T20:00:40.507Z,4.90
2024-05-09T20:03:11.183Z,4.82
2024-05-09T20:05:39.338Z,4.72
2024-05-09T20:08:07.227Z,4.34
2024-05-09T20:10:36.162Z,4.41
2024-05-09T20:13:06.401Z,4.16
2024-05-09T20:15:36.247Z,4.18
2024-05-09T20:18:04.395Z,4.36
2024-05-09T20:20:37.787Z,4.42
2024-05-09T20:23:09.771Z,4.48
2024-05-09T20:25:37.983Z,4.34
2024-05-09T20:28:06.184Z,4.50
2024-05-09T20:30:34.761Z,4.52
2024-05-09T20:33:04.564Z,4.55
2024-05-09T20:35:33.431Z,4.47
2024-05-09T20:38:01.514Z,4.27
2024-05-09T20:40:33.946Z,4.11
2024-05-09T20:43:05.578Z,3.96
2024-05-09T20:45:33.526Z,4.05
2024-05-09T20:48:01.370Z,3.98
2024-05-09T20:50:36.869Z,4.03
2024-05-09T20:53:13.425Z,3.55
2024-05-09T20:55:42.346Z,4.17
2024-05-09T20:58:10.334Z,4.12
2024-05-09T21:00:41.352Z,3.79
2024-05-09T21:03:12.820Z,3.87
2024-05-09T21:05:41.072Z,3.59
2024-05-09T21:08:08.695Z,3.86
2024-05-09T21:10:36.811Z,3.84
2024-05-09T21:13:05.478Z,3.77
2024-05-09T21:15:33.743Z,3.96
2024-05-09T21:18:01.098Z,3.84
2024-05-09T21:20:31.413Z,4.14
2024-05-09T21:23:00.778Z,4.13
2024-05-09T21:25:28.145Z,4.00
2024-05-09T21:27:55.665Z,3.76
2024-05-09T21:30:32.446Z,3.57
2024-05-09T21:33:09.518Z,3.58
2024-05-09T21:35:38.094Z,3.43
2024-05-09T21:38:05.744Z,3.62
2024-05-09T21:40:35.321Z,3.23
2024-05-09T21:43:05.134Z,3.52
2024-05-09T21:45:33.618Z,3.47
2024-05-09T21:48:03.547Z,3.29
2024-05-09T21:50:37.123Z,3.17
2024-05-09T21:53:08.151Z,3.09
2024-05-09T21:55:35.472Z,3.04
2024-05-09T21:58:03.522Z,3.01
2024-05-09T22:00:36.680Z,3.01
2024-05-09T22:03:10.669Z,2.61
2024-05-09T22:05:41.930Z,2.68
2024-05-09T22:08:09.923Z,2.44
2024-05-09T22:10:37.578Z,2.68
2024-05-09T22:13:08.884Z,2.55
2024-05-09T22:15:38.635Z,2.54
2024-05-09T22:18:08.720Z,2.31
2024-05-09T22:20:39.397Z,2.40
2024-05-09T22:23:08.449Z,2.21
2024-05-09T22:25:36.808Z,2.40
2024-05-09T22:28:05.071Z,2.22
2024-05-09T22:30:37.179Z,2.08
2024-05-09T22:33:08.984Z,2.03
2024-05-09T22:35:37.471Z,1.67
2024-05-09T22:38:04.847Z,1.95
2024-05-09T22:40:42.390Z,2.28
2024-05-09T22:43:23.327Z,2.52
2024-05-09T22:45:54.746Z,2.47
2024-05-09T22:48:23.894Z,1.94
2024-05-09T22:50:52.581Z,2.11
2024-05-09T22:53:21.838Z,1.60
2024-05-09T22:55:49.099Z,1.49
2024-05-09T22:58:16.826Z,1.53
2024-05-09T23:00:44.260Z,1.87
2024-05-09T23:03:11.766Z,1.66
2024-05-09T23:05:39.068Z,1.56
2024-05-09T23:08:07.150Z,1.31
2024-05-09T23:10:37.658Z,1.19
2024-05-09T23:13:06.987Z,1.54
2024-05-09T23:15:36.932Z,1.57
2024-05-09T23:18:04.621Z,1.22
2024-05-09T23:20:37.592Z,0.96
2024-05-09T23:23:11.395Z,1.24
2024-05-09T23:25:43.851Z,1.24
2024-05-09T23:28:11.710Z,1.18
2024-05-09T23:30:40.827Z,0.98
2024-05-09T23:33:11.796Z,0.74
2024-05-09T23:35:41.250Z,1.03
2024-05-09T23:38:08.763Z,0.72
2024-05-09T23:40:39.636Z,0.71
2024-05-09T23:43:10.380Z,0.37
2024-05-09T23:45:38.479Z,0.37
2024-05-09T23:48:06.470Z,0.49
2024-05-09T23:50:37.287Z,0.46
2024-05-09T23:53:08.066Z,0.27
2024-05-09T23:55:36.782Z,0.26
2024-05-09T23:58:04.322Z,0.22
